createdAt,value
2023-05-03T00:00:58.752Z,604.00
2023-05-03T00:01:58.817Z,604.00
2023-05-03T00:02:58.795Z,604.00
2023-05-03T00:03:58.755Z,603.00
2023-05-03T00:04:58.804Z,604.00
2023-05-03T00:05:58.757Z,602.00
2023-05-03T00:06:58.753Z,601.00
2023-05-03T00:07:58.757Z,602.00
2023-05-03T00:08:58.755Z,600.00
2023-05-03T00:09:58.761Z,599.00
2023-05-03T00:10:58.799Z,599.00
2023-05-03T00:11:58.753Z,597.00
2023-05-03T00:12:58.761Z,594.00
2023-05-03T00:13:58.777Z,594.00
2023-05-03T00:14:58.766Z,592.00
2023-05-03T00:15:58.767Z,591.00
2023-05-03T00:16:58.796Z,591.00
2023-05-03T00:17:58.783Z,596.00
2023-05-03T00:18:58.769Z,596.00
2023-05-03T00:19:58.780Z,598.00
2023-05-03T00:20:58.778Z,598.00
2023-05-03T00:21:58.770Z,597.00
2023-05-03T00:22:58.784Z,598.00
2023-05-03T00:23:58.781Z,598.00
2023-05-03T00:24:58.771Z,600.00
2023-05-03T00:25:58.799Z,599.00
2023-05-03T00:26:58.799Z,601.00
2023-05-03T00:27:58.783Z,600.00
2023-05-03T00:28:58.808Z,599.00
2023-05-03T00:29:58.874Z,597.00
2023-05-03T00:30:58.930Z,596.00
2023-05-03T00:31:58.923Z,597.00
2023-05-03T00:32:59.004Z,594.00
2023-05-03T00:33:58.977Z,593.00
2023-05-03T00:34:59.015Z,594.00
2023-05-03T00:35:59.057Z,592.00
2023-05-03T00:36:59.095Z,592.00
2023-05-03T00:37:59.114Z,592.00
2023-05-03T00:38:59.155Z,592.00
2023-05-03T00:39:59.183Z,592.00
2023-05-03T00:40:59.227Z,590.00
2023-05-03T00:41:59.264Z,590.00
2023-05-03T00:42:59.307Z,590.00
2023-05-03T00:43:59.318Z,589.00
2023-05-03T00:44:59.345Z,588.00
2023-05-03T00:46:12.486Z,590.00
2023-05-03T00:46:59.831Z,589.00
2023-05-03T00:47:59.838Z,587.00
2023-05-03T00:48:59.744Z,587.00
2023-05-03T00:49:59.809Z,586.00
2023-05-03T00:50:59.784Z,584.00
2023-05-03T00:51:59.745Z,582.00
2023-05-03T00:52:59.777Z,581.00
2023-05-03T00:53:59.757Z,580.00
2023-05-03T00:54:59.750Z,584.00
2023-05-03T00:55:59.746Z,587.00
2023-05-03T00:56:59.748Z,586.00
2023-05-03T00:57:59.745Z,584.00
2023-05-03T00:58:59.401Z,586.00
2023-05-03T00:59:59.388Z,588.00
2023-05-03T01:00:59.364Z,587.00
2023-05-03T01:01:59.686Z,586.00
2023-05-03T01:02:59.790Z,589.00
2023-05-03T01:03:59.493Z,589.00
2023-05-03T01:04:59.376Z,586.00
2023-05-03T01:05:59.372Z,585.00
2023-05-03T01:06:59.366Z,582.00
2023-05-03T01:07:59.366Z,582.00
2023-05-03T01:08:59.368Z,582.00
2023-05-03T01:09:59.381Z,583.00
2023-05-03T01:10:59.353Z,582.00
2023-05-03T01:11:59.360Z,581.00
2023-05-03T01:12:59.350Z,579.00
2023-05-03T01:13:59.368Z,576.00
2023-05-03T01:14:59.371Z,574.00
2023-05-03T01:15:59.383Z,575.00
2023-05-03T01:16:59.353Z,577.00
2023-05-03T01:17:59.413Z,576.00
2023-05-03T01:18:59.413Z,574.00
2023-05-03T01:19:59.511Z,572.00
2023-05-03T01:20:59.522Z,570.00
2023-05-03T01:21:59.519Z,568.00
2023-05-03T01:22:59.554Z,568.00
2023-05-03T01:23:59.586Z,570.00
2023-05-03T01:24:59.613Z,569.00
2023-05-03T01:25:59.658Z,569.00
2023-05-03T01:26:59.687Z,569.00
2023-05-03T01:27:59.727Z,568.00
2023-05-03T01:28:59.760Z,568.00
2023-05-03T01:30:00.474Z,567.00
2023-05-03T01:31:00.212Z,570.00
2023-05-03T01:32:00.249Z,570.00
2023-05-03T01:33:00.288Z,571.00
2023-05-03T01:34:00.182Z,573.00
2023-05-03T01:35:00.180Z,572.00
2023-05-03T01:36:00.210Z,570.00
2023-05-03T01:37:00.206Z,568.00
2023-05-03T01:38:00.193Z,565.00
2023-05-03T01:39:00.195Z,565.00
2023-05-03T01:40:00.585Z,566.00
2023-05-03T01:41:00.187Z,568.00
2023-05-03T01:42:00.209Z,569.00
2023-05-03T01:43:00.248Z,568.00
2023-05-03T01:44:00.274Z,565.00
2023-05-03T01:45:00.313Z,561.00
2023-05-03T01:46:00.359Z,562.00
2023-05-03T01:47:00.404Z,562.00
2023-05-03T01:48:00.467Z,564.00
2023-05-03T01:49:00.456Z,565.00
2023-05-03T01:50:00.849Z,565.00
2023-05-03T01:51:00.542Z,563.00
2023-05-03T01:52:00.552Z,561.00
2023-05-03T01:53:00.596Z,562.00
2023-05-03T01:54:00.620Z,561.00
2023-05-03T01:55:00.667Z,560.00
2023-05-03T01:56:00.692Z,560.00
2023-05-03T01:57:00.730Z,561.00
2023-05-03T01:58:00.767Z,559.00
2023-05-03T01:59:00.801Z,557.00
2023-05-03T02:00:01.039Z,555.00
2023-05-03T02:01:00.911Z,552.00
2023-05-03T02:02:00.916Z,552.00
2023-05-03T02:03:01.016Z,551.00
2023-05-03T02:04:01.084Z,551.00
2023-05-03T02:05:01.041Z,550.00
2023-05-03T02:06:01.127Z,550.00
2023-05-03T02:07:01.179Z,552.00
2023-05-03T02:08:01.146Z,552.00
2023-05-03T02:09:01.179Z,553.00
2023-05-03T02:10:01.629Z,554.00
2023-05-03T02:11:01.264Z,555.00
2023-05-03T02:12:01.297Z,555.00
2023-05-03T02:13:01.337Z,554.00
2023-05-03T02:14:01.369Z,554.00
2023-05-03T02:15:01.414Z,553.00
2023-05-03T02:16:01.446Z,552.00
2023-05-03T02:17:01.568Z,552.00
2023-05-03T02:18:01.552Z,554.00
2023-05-03T02:19:01.569Z,556.00
2023-05-03T02:20:01.929Z,559.00
2023-05-03T02:21:01.634Z,560.00
2023-05-03T02:22:01.652Z,559.00
2023-05-03T02:23:01.687Z,560.00
2023-05-03T02:24:01.743Z,561.00
2023-05-03T02:25:01.788Z,559.00
2023-05-03T02:26:01.781Z,561.00
2023-05-03T02:27:01.827Z,562.00
2023-05-03T02:28:01.844Z,562.00
2023-05-03T02:29:01.902Z,564.00
2023-05-03T02:30:02.481Z,562.00
2023-05-03T02:31:02.013Z,561.00
2023-05-03T02:32:01.998Z,558.00
2023-05-03T02:33:02.076Z,557.00
2023-05-03T02:34:02.071Z,555.00
2023-05-03T02:35:02.095Z,556.00
2023-05-03T02:36:02.132Z,557.00
2023-05-03T02:37:02.174Z,557.00
2023-05-03T02:38:02.188Z,557.00
2023-05-03T02:39:02.227Z,555.00
2023-05-03T02:40:02.460Z,555.00
2023-05-03T02:41:02.303Z,557.00
2023-05-03T02:42:02.343Z,556.00
2023-05-03T02:43:02.382Z,556.00
2023-05-03T02:44:02.402Z,557.00
2023-05-03T02:45:02.443Z,558.00
2023-05-03T02:46:02.505Z,557.00
2023-05-03T02:47:02.522Z,558.00
2023-05-03T02:48:02.611Z,557.00
2023-05-03T02:49:02.668Z,556.00
2023-05-03T02:50:02.745Z,555.00
2023-05-03T02:51:02.685Z,554.00
2023-05-03T02:52:02.703Z,553.00
2023-05-03T02:53:02.738Z,552.00
2023-05-03T02:54:02.790Z,549.00
2023-05-03T02:55:02.838Z,550.00
2023-05-03T02:56:02.850Z,551.00
2023-05-03T02:57:02.891Z,551.00
2023-05-03T02:58:02.930Z,554.00
2023-05-03T02:59:02.960Z,554.00
2023-05-03T03:00:03.255Z,554.00
2023-05-03T03:01:03.041Z,552.00
2023-05-03T03:02:03.131Z,551.00
2023-05-03T03:03:03.222Z,549.00
2023-05-03T03:04:03.287Z,550.00
2023-05-03T03:05:03.194Z,550.00
2023-05-03T03:06:03.257Z,550.00
2023-05-03T03:07:03.301Z,547.00
2023-05-03T03:08:03.297Z,547.00
2023-05-03T03:09:03.347Z,548.00
2023-05-03T03:10:03.634Z,550.00
2023-05-03T03:11:03.421Z,550.00
2023-05-03T03:12:03.534Z,548.00
2023-05-03T03:13:03.519Z,547.00
2023-05-03T03:14:03.556Z,545.00
2023-05-03T03:15:03.597Z,542.00
2023-05-03T03:16:03.665Z,542.00
2023-05-03T03:17:03.678Z,539.00
2023-05-03T03:18:03.794Z,536.00
2023-05-03T03:19:03.745Z,533.00
2023-05-03T03:20:04.114Z,534.00
2023-05-03T03:21:03.829Z,536.00
2023-05-03T03:22:03.872Z,537.00
2023-05-03T03:23:03.930Z,538.00
2023-05-03T03:24:03.957Z,537.00
2023-05-03T03:25:03.994Z,536.00
2023-05-03T03:26:04.021Z,537.00
2023-05-03T03:27:04.065Z,538.00
2023-05-03T03:28:04.106Z,538.00
2023-05-03T03:29:04.143Z,538.00
2023-05-03T03:30:04.501Z,541.00
2023-05-03T03:31:04.245Z,541.00
2023-05-03T03:32:04.454Z,541.00
2023-05-03T03:33:04.397Z,538.00
2023-05-03T03:34:04.348Z,540.00
2023-05-03T03:35:04.396Z,541.00
2023-05-03T03:36:04.442Z,539.00
2023-05-03T03:37:04.841Z,539.00
2023-05-03T03:38:04.902Z,539.00
2023-05-03T03:39:04.923Z,539.00
2023-05-03T03:40:05.203Z,536.00
2023-05-03T03:41:04.921Z,537.00
2023-05-03T03:42:04.921Z,539.00
2023-05-03T03:43:04.899Z,540.00
2023-05-03T03:44:04.885Z,540.00
2023-05-03T03:45:04.885Z,543.00
2023-05-03T03:46:04.887Z,543.00
2023-05-03T03:47:04.959Z,543.00
2023-05-03T03:48:05.022Z,543.00
2023-05-03T03:49:04.995Z,541.00
2023-05-03T03:50:05.323Z,539.00
2023-05-03T03:51:05.076Z,536.00
2023-05-03T03:52:05.112Z,535.00
2023-05-03T03:53:05.148Z,535.00
2023-05-03T03:54:05.197Z,535.00
2023-05-03T03:55:05.264Z,536.00
2023-05-03T03:56:05.281Z,538.00
2023-05-03T03:57:05.376Z,541.00
2023-05-03T03:58:05.409Z,543.00
2023-05-03T03:59:05.421Z,542.00
2023-05-03T04:00:05.875Z,543.00
2023-05-03T04:01:05.467Z,541.00
2023-05-03T04:02:05.539Z,543.00
2023-05-03T04:03:07.577Z,543.00
2023-05-03T04:04:05.677Z,541.00
2023-05-03T04:05:05.554Z,541.00
2023-05-03T04:06:05.566Z,543.00
2023-05-03T04:07:05.551Z,542.00
2023-05-03T04:08:05.564Z,540.00
2023-05-03T04:09:05.559Z,539.00
2023-05-03T04:10:05.896Z,540.00
2023-05-03T04:11:05.570Z,536.00
2023-05-03T04:12:05.541Z,538.00
2023-05-03T04:13:05.570Z,537.00
2023-05-03T04:14:05.555Z,537.00
2023-05-03T04:15:05.541Z,536.00
2023-05-03T04:16:05.580Z,538.00
2023-05-03T04:17:05.604Z,539.00
2023-05-03T04:18:05.593Z,539.00
2023-05-03T04:19:05.540Z,540.00
2023-05-03T04:20:05.870Z,541.00
2023-05-03T04:21:05.522Z,541.00
2023-05-03T04:22:05.530Z,540.00
2023-05-03T04:23:05.514Z,539.00
2023-05-03T04:24:05.506Z,540.00
2023-05-03T04:25:05.506Z,540.00
2023-05-03T04:26:05.594Z,542.00
2023-05-03T04:27:05.776Z,540.00
2023-05-03T04:28:05.566Z,539.00
2023-05-03T04:29:05.621Z,537.00
2023-05-03T04:30:05.847Z,536.00
2023-05-03T04:31:05.778Z,535.00
2023-05-03T04:32:05.750Z,536.00
2023-05-03T04:33:06.168Z,536.00
2023-05-03T04:34:06.192Z,538.00
2023-05-03T04:35:06.184Z,538.00
2023-05-03T04:36:06.196Z,538.00
2023-05-03T04:37:06.190Z,539.00
2023-05-03T04:38:06.201Z,538.00
2023-05-03T04:39:06.209Z,537.00
2023-05-03T04:40:06.192Z,538.00
2023-05-03T04:41:06.180Z,539.00
2023-05-03T04:42:06.189Z,537.00
2023-05-03T04:43:06.242Z,537.00
2023-05-03T04:44:06.266Z,536.00
2023-05-03T04:45:06.305Z,535.00
2023-05-03T04:46:06.404Z,535.00
2023-05-03T04:47:06.381Z,534.00
2023-05-03T04:48:06.477Z,533.00
2023-05-03T04:49:06.473Z,531.00
2023-05-03T04:50:06.742Z,532.00
2023-05-03T04:51:06.602Z,529.00
2023-05-03T04:52:06.629Z,529.00
2023-05-03T04:53:06.663Z,528.00
2023-05-03T04:54:06.685Z,529.00
2023-05-03T04:55:06.740Z,529.00
2023-05-03T04:56:06.784Z,527.00
2023-05-03T04:57:06.824Z,525.00
2023-05-03T04:58:06.879Z,524.00
2023-05-03T04:59:06.948Z,522.00
2023-05-03T05:00:07.080Z,521.00
2023-05-03T05:01:07.245Z,519.00
2023-05-03T05:02:07.060Z,520.00
2023-05-03T05:03:07.255Z,518.00
2023-05-03T05:04:07.148Z,515.00
2023-05-03T05:05:07.164Z,515.00
2023-05-03T05:06:07.313Z,514.00
2023-05-03T05:07:07.256Z,516.00
2023-05-03T05:08:07.302Z,515.00
2023-05-03T05:09:07.370Z,515.00
2023-05-03T05:10:07.395Z,514.00
2023-05-03T05:11:07.457Z,517.00
2023-05-03T05:12:07.497Z,518.00
2023-05-03T05:13:07.529Z,517.00
2023-05-03T05:14:07.562Z,515.00
2023-05-03T05:15:07.628Z,516.00
2023-05-03T05:16:07.659Z,515.00
2023-05-03T05:17:07.733Z,514.00
2023-05-03T05:18:07.844Z,514.00
2023-05-03T05:19:07.855Z,514.00
2023-05-03T05:20:07.862Z,514.00
2023-05-03T05:21:07.879Z,516.00
2023-05-03T05:22:07.949Z,520.00
2023-05-03T05:23:08.029Z,628.00
2023-05-03T05:24:08.034Z,764.00
2023-05-03T05:25:08.085Z,593.00
2023-05-03T05:26:08.116Z,572.00
2023-05-03T05:27:08.163Z,573.00
2023-05-03T05:28:08.211Z,580.00
2023-05-03T05:29:08.264Z,619.00
2023-05-03T05:30:08.366Z,703.00
2023-05-03T05:31:08.399Z,633.00
2023-05-03T05:32:08.429Z,634.00
2023-05-03T05:33:08.439Z,640.00
2023-05-03T05:34:08.515Z,647.00
2023-05-03T05:35:08.509Z,657.00
2023-05-03T05:36:08.541Z,678.00
2023-05-03T05:37:08.578Z,683.00
2023-05-03T05:38:08.616Z,682.00
2023-05-03T05:39:08.643Z,682.00
2023-05-03T05:40:08.665Z,686.00
2023-05-03T05:41:08.873Z,690.00
2023-05-03T05:42:08.744Z,890.00
2023-05-03T05:43:08.880Z,750.00
2023-05-03T05:44:08.797Z,770.00
2023-05-03T05:45:08.851Z,690.00
2023-05-03T05:46:08.920Z,669.00
2023-05-03T05:47:09.446Z,725.00
2023-05-03T05:48:09.003Z,658.00
2023-05-03T05:49:09.020Z,685.00
2023-05-03T05:50:16.965Z,655.00
2023-05-03T05:51:09.082Z,641.00
2023-05-03T05:52:09.378Z,633.00
2023-05-03T05:53:09.105Z,638.00
2023-05-03T05:54:09.090Z,647.00
2023-05-03T05:55:09.098Z,649.00
2023-05-03T05:56:09.108Z,649.00
2023-05-03T05:57:10.379Z,616.00
2023-05-03T05:58:09.378Z,597.00
2023-05-03T05:59:09.119Z,717.00
2023-05-03T06:00:09.127Z,701.00
2023-05-03T06:01:09.138Z,706.00
2023-05-03T06:02:09.411Z,772.00
2023-05-03T06:03:09.241Z,755.00
2023-05-03T06:04:09.159Z,743.00
2023-05-03T06:05:09.173Z,749.00
2023-05-03T06:06:09.233Z,754.00
2023-05-03T06:07:12.589Z,759.00
2023-05-03T06:08:09.200Z,759.00
2023-05-03T06:09:22.974Z,769.00
2023-05-03T06:10:09.393Z,769.00
2023-05-03T06:11:09.204Z,763.00
2023-05-03T06:12:09.244Z,765.00
2023-05-03T06:13:09.216Z,769.00
2023-05-03T06:14:09.394Z,763.00
2023-05-03T06:15:09.234Z,765.00
2023-05-03T06:16:09.248Z,777.00
2023-05-03T06:17:09.298Z,786.00
2023-05-03T06:18:09.288Z,788.00
2023-05-03T06:19:09.513Z,787.00
2023-05-03T06:20:09.253Z,791.00
2023-05-03T07:20:29.450Z,930.00
2023-05-03T07:21:29.408Z,921.00
2023-05-03T11:31:21.369Z,1122.00
2023-05-03T11:32:22.383Z,1116.00
2023-05-03T11:33:22.296Z,1108.00
2023-05-03T11:34:22.278Z,1110.00
2023-05-03T11:35:22.274Z,1117.00
2023-05-03T11:36:22.275Z,1121.00
2023-05-03T11:37:22.267Z,1129.00
2023-05-03T11:38:22.254Z,1136.00
2023-05-03T11:39:22.350Z,1141.00
2023-05-03T11:40:22.237Z,1145.00
2023-05-03T11:41:22.239Z,1150.00
2023-05-03T11:42:22.246Z,1153.00
2023-05-03T11:43:22.227Z,1159.00
2023-05-03T11:44:22.500Z,1166.00
2023-05-03T11:45:23.352Z,1169.00
2023-05-03T11:46:22.213Z,1168.00
2023-05-03T11:47:22.378Z,1173.00
2023-05-03T11:48:22.339Z,1179.00
2023-05-03T11:49:22.177Z,1182.00
2023-05-03T11:50:22.165Z,1186.00
2023-05-03T11:51:22.162Z,1190.00
2023-05-03T11:52:22.188Z,1195.00
2023-05-03T11:53:22.259Z,1197.00
2023-05-03T11:54:26.112Z,1203.00
2023-05-03T11:55:22.229Z,1204.00
2023-05-03T11:56:22.212Z,1209.00
2023-05-03T11:57:22.230Z,1214.00
2023-05-03T11:58:22.208Z,1217.00
2023-05-03T11:59:22.179Z,1226.00
2023-05-03T12:00:22.192Z,1234.00
2023-05-03T12:01:22.261Z,1239.00
2023-05-03T12:02:22.172Z,1236.00
2023-05-03T12:03:23.378Z,1238.00
2023-05-03T12:04:22.422Z,1251.00
2023-05-03T12:05:23.286Z,1320.00
2023-05-03T12:06:23.044Z,1302.00
2023-05-03T12:07:23.524Z,1209.00
2023-05-03T12:08:23.221Z,1136.00
2023-05-03T12:09:23.516Z,1005.00
2023-05-03T12:10:25.848Z,1087.00
2023-05-03T12:11:25.179Z,1360.00
2023-05-03T12:12:26.555Z,1142.00
2023-05-03T12:13:24.391Z,1219.00
2023-05-03T12:14:22.268Z,1251.00
2023-05-03T12:15:22.828Z,1273.00
2023-05-03T12:16:22.196Z,1284.00
2023-05-03T12:17:22.346Z,1381.00
2023-05-03T12:18:22.262Z,1377.00
2023-05-03T12:22:26.540Z,1457.00
2023-05-03T12:23:22.414Z,1464.00
2023-05-03T12:24:24.328Z,1473.00
2023-05-03T12:25:25.724Z,1487.00
2023-05-03T12:26:22.156Z,1529.00
2023-05-03T12:27:23.613Z,1553.00
2023-05-03T12:28:22.055Z,1559.00
2023-05-03T12:29:23.752Z,1569.00
2023-05-03T12:30:23.515Z,1581.00
2023-05-03T12:31:22.970Z,1603.00
2023-05-03T12:32:23.076Z,1619.00
2023-05-03T12:33:23.265Z,1685.00
2023-05-03T12:34:33.946Z,1715.00
2023-05-03T12:35:22.554Z,1723.00
2023-05-03T12:36:25.674Z,1733.00
2023-05-03T12:37:22.377Z,1739.00
2023-05-03T12:39:22.013Z,1804.00
2023-05-03T12:40:33.264Z,1813.00
2023-05-03T12:41:52.264Z,1818.00
2023-05-03T12:42:22.585Z,1830.00
2023-05-03T12:43:22.148Z,1846.00
2023-05-03T12:44:28.700Z,1861.00
2023-05-03T12:45:22.321Z,1881.00
2023-05-03T12:46:34.041Z,1887.00
2023-05-03T12:47:28.283Z,1903.00
2023-05-03T12:48:21.977Z,1906.00
2023-05-03T12:49:23.614Z,1926.00
2023-05-03T12:50:24.618Z,1975.00
2023-05-03T12:51:25.657Z,1992.00
2023-05-03T12:52:37.039Z,1997.00
2023-05-03T12:53:25.653Z,2006.00
2023-05-03T12:54:24.161Z,2019.00
2023-05-03T12:55:25.248Z,2052.00
2023-05-03T12:56:25.770Z,2052.00
2023-05-03T12:59:40.302Z,1352.00
2023-05-03T13:03:13.864Z,1104.00
2023-05-03T13:03:22.327Z,1001.00
2023-05-03T13:04:55.855Z,929.00
2023-05-03T13:05:33.763Z,933.00
2023-05-03T13:06:21.797Z,903.00
2023-05-03T13:07:28.130Z,963.00
2023-05-03T13:08:22.042Z,895.00
2023-05-03T13:09:24.718Z,891.00
2023-05-03T13:11:20.542Z,881.00
2023-05-03T13:12:21.498Z,881.00
2023-05-03T13:13:21.440Z,878.00
2023-05-03T13:14:21.580Z,883.00
2023-05-03T13:15:21.417Z,874.00
2023-05-03T13:16:21.486Z,874.00
2023-05-03T13:17:21.397Z,879.00
2023-05-03T13:18:21.436Z,878.00
2023-05-03T13:19:21.565Z,874.00
2023-05-03T13:20:21.370Z,875.00
2023-05-03T13:21:21.354Z,871.00
2023-05-03T13:22:21.337Z,864.00
2023-05-03T13:23:22.082Z,856.00
2023-05-03T13:24:21.316Z,852.00
2023-05-03T13:25:21.332Z,846.00
2023-05-03T13:26:21.289Z,835.00
2023-05-03T13:27:21.277Z,831.00
2023-05-03T13:28:21.266Z,822.00
2023-05-03T13:29:21.261Z,819.00
2023-05-03T13:30:21.256Z,809.00
2023-05-03T13:31:21.276Z,804.00
2023-05-03T13:32:21.276Z,814.00
2023-05-03T13:33:21.312Z,809.00
2023-05-03T13:34:21.207Z,810.00
2023-05-03T13:35:21.203Z,825.00
2023-05-03T13:36:21.188Z,830.00
2023-05-03T13:37:21.179Z,832.00
2023-05-03T13:38:21.155Z,836.00
2023-05-03T13:39:21.177Z,844.00
2023-05-03T13:40:21.147Z,851.00
2023-05-03T13:41:21.134Z,852.00
2023-05-03T13:42:21.143Z,855.00
2023-05-03T13:43:21.167Z,859.00
2023-05-03T13:44:21.204Z,856.00
2023-05-03T13:45:22.054Z,852.00
2023-05-03T13:46:21.294Z,852.00
2023-05-03T13:47:21.309Z,851.00
2023-05-03T13:48:21.354Z,854.00
2023-05-03T13:49:21.360Z,852.00
2023-05-03T13:50:21.393Z,851.00
2023-05-03T13:51:21.416Z,855.00
2023-05-03T13:52:21.444Z,857.00
2023-05-03T13:53:21.470Z,856.00
2023-05-03T13:54:21.501Z,856.00
2023-05-03T13:55:21.563Z,859.00
2023-05-03T13:56:21.632Z,858.00
2023-05-03T13:57:21.602Z,859.00
2023-05-03T13:58:21.627Z,859.00
2023-05-03T13:59:21.667Z,859.00
2023-05-03T14:00:21.724Z,859.00
2023-05-03T14:01:21.799Z,855.00
2023-05-03T14:02:21.859Z,855.00
2023-05-03T14:03:21.989Z,854.00
2023-05-03T14:04:21.889Z,852.00
2023-05-03T14:05:21.868Z,852.00
2023-05-03T14:06:21.916Z,852.00
2023-05-03T14:07:21.941Z,853.00
2023-05-03T14:08:20.980Z,855.00
2023-05-03T14:09:22.024Z,857.00
2023-05-03T14:10:22.058Z,856.00
2023-05-03T14:11:22.228Z,853.00
2023-05-03T14:12:22.157Z,852.00
2023-05-03T14:13:22.245Z,852.00
2023-05-03T14:14:22.191Z,852.00
2023-05-03T14:15:22.239Z,854.00
2023-05-03T14:16:35.701Z,855.00
2023-05-03T14:17:22.261Z,856.00
2023-05-03T14:18:22.329Z,858.00
2023-05-03T14:19:22.234Z,857.00
2023-05-03T14:20:22.269Z,857.00
2023-05-03T14:21:22.218Z,858.00
2023-05-03T14:22:22.207Z,857.00
2023-05-03T14:23:22.190Z,854.00
2023-05-03T14:24:22.209Z,854.00
2023-05-03T14:25:22.188Z,857.00
2023-05-03T14:26:22.263Z,858.00
2023-05-03T14:27:22.248Z,859.00
2023-05-03T14:28:23.342Z,856.00
2023-05-03T14:29:23.253Z,855.00
2023-05-03T14:30:22.095Z,855.00
2023-05-03T14:31:22.100Z,855.00
2023-05-03T14:32:22.189Z,854.00
2023-05-03T14:33:22.098Z,855.00
2023-05-03T14:34:22.122Z,853.00
2023-05-03T14:35:22.206Z,853.00
2023-05-03T14:36:22.285Z,853.00
2023-05-03T14:37:22.264Z,850.00
2023-05-03T14:38:22.307Z,852.00
2023-05-03T14:39:22.372Z,851.00
2023-05-03T14:40:22.385Z,849.00
2023-05-03T14:41:22.430Z,849.00
2023-05-03T14:42:22.489Z,849.00
2023-05-03T14:43:21.561Z,849.00
2023-05-03T14:44:22.574Z,848.00
2023-05-03T14:45:22.628Z,846.00
2023-05-03T14:46:22.804Z,844.00
2023-05-03T14:47:22.747Z,844.00
2023-05-03T14:48:22.790Z,844.00
2023-05-03T14:49:22.828Z,845.00
2023-05-03T14:50:23.264Z,846.00
2023-05-03T14:51:23.283Z,850.00
2023-05-03T14:52:23.268Z,849.00
2023-05-03T14:53:23.263Z,850.00
2023-05-03T14:54:23.272Z,849.00
2023-05-03T14:55:23.273Z,849.00
2023-05-03T14:56:23.272Z,849.00
2023-05-03T14:57:23.269Z,851.00
2023-05-03T14:58:23.370Z,853.00
2023-05-03T14:59:23.336Z,852.00
2023-05-03T15:00:23.373Z,851.00
2023-05-03T15:01:23.549Z,846.00
2023-05-03T15:02:23.503Z,848.00
2023-05-03T15:03:23.549Z,849.00
2023-05-03T15:04:23.561Z,847.00
2023-05-03T15:05:23.593Z,847.00
2023-05-03T15:06:23.645Z,847.00
2023-05-03T15:07:23.709Z,846.00
2023-05-03T15:08:23.839Z,843.00
2023-05-03T15:09:23.809Z,843.00
2023-05-03T15:10:23.859Z,842.00
2023-05-03T15:11:23.910Z,841.00
2023-05-03T15:12:23.965Z,840.00
2023-05-03T15:13:24.358Z,839.00
2023-05-03T15:14:24.144Z,837.00
2023-05-03T15:15:24.125Z,838.00
2023-05-03T15:16:24.208Z,836.00
2023-05-03T15:17:24.253Z,837.00
2023-05-03T15:18:24.398Z,836.00
2023-05-03T15:19:24.363Z,834.00
2023-05-03T15:20:24.424Z,832.00
2023-05-03T15:21:24.520Z,836.00
2023-05-03T15:22:24.544Z,834.00
2023-05-03T15:23:24.604Z,835.00
2023-05-03T15:24:24.698Z,836.00
2023-05-03T15:25:24.721Z,835.00
2023-05-03T15:26:24.781Z,835.00
2023-05-03T15:27:24.831Z,837.00
2023-05-03T15:28:24.882Z,835.00
2023-05-03T15:29:24.929Z,833.00
2023-05-03T15:30:25.008Z,836.00
2023-05-03T15:31:25.060Z,837.00
2023-05-03T15:32:25.109Z,838.00
2023-05-03T15:33:25.153Z,836.00
2023-05-03T15:34:25.208Z,834.00
2023-05-03T15:35:25.270Z,832.00
2023-05-03T15:36:25.321Z,831.00
2023-05-03T15:37:25.390Z,832.00
2023-05-03T15:38:25.453Z,833.00
2023-05-03T15:39:25.487Z,832.00
2023-05-03T15:40:27.083Z,832.00
2023-05-03T15:41:25.549Z,832.00
2023-05-03T15:42:25.536Z,828.00
2023-05-03T15:43:25.539Z,824.00
2023-05-03T15:44:25.539Z,820.00
2023-05-03T15:45:25.520Z,814.00
2023-05-03T15:46:25.702Z,819.00
2023-05-03T15:47:25.507Z,816.00
2023-05-03T15:48:25.502Z,815.00
2023-05-03T15:49:25.493Z,815.00
2023-05-03T15:50:25.553Z,812.00
2023-05-03T15:51:25.492Z,811.00
2023-05-03T15:52:25.486Z,809.00
2023-05-03T15:53:25.476Z,812.00
2023-05-03T15:54:25.467Z,813.00
2023-05-03T15:55:25.461Z,811.00
2023-05-03T15:56:25.465Z,808.00
2023-05-03T15:57:25.461Z,810.00
2023-05-03T15:58:25.484Z,811.00
2023-05-03T15:59:25.441Z,814.00
2023-05-03T16:00:25.464Z,814.00
2023-05-03T16:01:25.508Z,811.00
2023-05-03T16:02:25.453Z,810.00
2023-05-03T16:03:25.424Z,811.00
2023-05-03T16:04:25.451Z,813.00
2023-05-03T16:05:25.511Z,809.00
2023-05-03T16:06:25.438Z,809.00
2023-05-03T16:07:25.479Z,808.00
2023-05-03T16:08:25.528Z,807.00
2023-05-03T16:09:25.594Z,809.00
2023-05-03T16:10:25.654Z,805.00
2023-05-03T16:11:25.720Z,807.00
2023-05-03T16:12:25.760Z,807.00
2023-05-03T16:13:25.794Z,806.00
2023-05-03T16:14:25.849Z,801.00
2023-05-03T16:15:25.890Z,800.00
2023-05-03T16:16:25.998Z,799.00
2023-05-03T16:17:25.986Z,799.00
2023-05-03T16:18:26.042Z,795.00
2023-05-03T16:19:26.066Z,791.00
2023-05-03T16:20:26.124Z,791.00
2023-05-03T16:21:26.164Z,790.00
2023-05-03T16:22:26.214Z,790.00
2023-05-03T16:23:26.263Z,790.00
2023-05-03T16:24:26.311Z,791.00
2023-05-03T16:25:26.368Z,792.00
2023-05-03T16:26:26.425Z,789.00
2023-05-03T16:27:26.493Z,789.00
2023-05-03T16:28:26.520Z,792.00
2023-05-03T16:29:26.553Z,791.00
2023-05-03T16:30:26.593Z,791.00
2023-05-03T16:31:26.678Z,790.00
2023-05-03T16:32:26.788Z,791.00
2023-05-03T16:33:26.723Z,793.00
2023-05-03T16:34:26.781Z,793.00
2023-05-03T16:35:26.800Z,790.00
2023-05-03T16:36:26.834Z,791.00
2023-05-03T16:37:26.865Z,791.00
2023-05-03T16:38:26.904Z,791.00
2023-05-03T16:39:26.926Z,792.00
2023-05-03T16:40:26.970Z,787.00
2023-05-03T16:41:27.009Z,783.00
2023-05-03T16:42:27.022Z,785.00
2023-05-03T16:43:27.085Z,786.00
2023-05-03T16:44:27.110Z,783.00
2023-05-03T16:45:27.232Z,781.00
2023-05-03T16:46:27.279Z,780.00
2023-05-03T16:47:27.256Z,778.00
2023-05-03T16:48:27.269Z,778.00
2023-05-03T16:49:27.319Z,780.00
2023-05-03T16:50:27.498Z,782.00
2023-05-03T16:51:27.438Z,778.00
2023-05-03T16:52:27.467Z,775.00
2023-05-03T16:53:28.339Z,774.00
2023-05-03T16:54:27.547Z,776.00
2023-05-03T16:55:27.595Z,775.00
2023-05-03T16:56:27.633Z,775.00
2023-05-03T16:57:27.685Z,774.00
2023-05-03T16:58:27.747Z,773.00
2023-05-03T16:59:27.794Z,774.00
2023-05-03T17:00:27.837Z,771.00
2023-05-03T17:01:27.953Z,769.00
2023-05-03T17:02:28.011Z,770.00
2023-05-03T17:03:28.473Z,767.00
2023-05-03T17:04:28.357Z,765.00
2023-05-03T17:05:28.345Z,764.00
2023-05-03T17:06:28.372Z,762.00
2023-05-03T17:07:28.345Z,760.00
2023-05-03T17:08:28.346Z,760.00
2023-05-03T17:09:28.347Z,761.00
2023-05-03T17:10:28.342Z,763.00
2023-05-03T17:11:28.372Z,761.00
2023-05-03T17:12:28.503Z,757.00
2023-05-03T17:13:28.482Z,754.00
2023-05-03T17:14:28.536Z,752.00
2023-05-03T17:15:28.596Z,752.00
2023-05-03T17:16:28.728Z,753.00
2023-05-03T17:17:28.717Z,753.00
2023-05-03T17:18:28.786Z,756.00
2023-05-03T17:19:28.814Z,759.00
2023-05-03T17:20:28.870Z,758.00
2023-05-03T17:21:28.931Z,757.00
2023-05-03T17:22:29.375Z,758.00
2023-05-03T17:23:29.360Z,763.00
2023-05-03T17:24:29.360Z,766.00
2023-05-03T17:25:29.355Z,770.00
2023-05-03T17:26:29.362Z,766.00
2023-05-03T17:27:29.365Z,764.00
2023-05-03T17:28:29.364Z,765.00
2023-05-03T17:29:29.396Z,763.00
2023-05-03T17:30:29.437Z,760.00
2023-05-03T17:31:29.519Z,757.00
2023-05-03T17:32:29.567Z,756.00
2023-05-03T17:33:29.877Z,754.00
2023-05-03T17:34:29.740Z,753.00
2023-05-03T17:35:29.730Z,750.00
2023-05-03T17:36:29.790Z,750.00
2023-05-03T17:37:29.858Z,753.00
2023-05-03T17:38:30.044Z,756.00
2023-05-03T17:39:29.938Z,752.00
2023-05-03T17:40:29.980Z,750.00
2023-05-03T17:41:30.058Z,749.00
2023-05-03T17:42:30.063Z,748.00
2023-05-03T17:43:30.108Z,750.00